createdAt,value
2022-10-03T00:01:15.808Z,1.55
2022-10-03T00:03:55.459Z,1.80
2022-10-03T00:06:47.741Z,1.67
2022-10-03T00:09:38.988Z,1.80
2022-10-03T00:12:20.877Z,1.50
2022-10-03T00:15:09.100Z,1.58
2022-10-03T00:18:04.037Z,1.40
2022-10-03T00:20:39.819Z,1.77
2022-10-03T00:23:30.438Z,1.40
2022-10-03T00:26:43.657Z,1.70
2022-10-03T00:29:31.858Z,1.60
2022-10-03T00:32:06.598Z,1.48
2022-10-03T00:34:42.559Z,1.33
2022-10-03T00:37:37.899Z,1.45
2022-10-03T00:40:30.222Z,1.63
2022-10-03T00:43:15.456Z,1.73
2022-10-03T00:46:06.736Z,1.48
2022-10-03T00:48:45.538Z,1.60
2022-10-03T00:51:22.600Z,1.63
2022-10-03T00:54:26.600Z,1.60
2022-10-03T00:57:15.060Z,1.25
2022-10-03T01:00:19.122Z,1.80
2022-10-03T01:02:52.240Z,1.67
2022-10-03T01:05:19.059Z,2.03
2022-10-03T01:08:23.181Z,1.52
2022-10-03T01:11:12.583Z,1.80
2022-10-03T01:14:09.637Z,1.70
2022-10-03T01:16:45.840Z,1.73
2022-10-03T01:19:49.979Z,1.80
2022-10-03T01:22:53.942Z,1.70
2022-10-03T01:25:26.561Z,1.90
2022-10-03T01:28:47.618Z,1.60
2022-10-03T01:31:15.973Z,1.47
2022-10-03T01:34:08.521Z,1.65
2022-10-03T01:36:52.660Z,1.70
2022-10-03T01:39:42.358Z,2.17
2022-10-03T01:42:31.583Z,1.52
2022-10-03T01:45:13.510Z,1.97
2022-10-03T01:47:51.590Z,2.00
2022-10-03T01:50:25.579Z,2.10
2022-10-03T01:53:17.779Z,2.30
2022-10-03T01:55:55.204Z,2.17
2022-10-03T01:58:31.390Z,1.97
2022-10-03T02:01:12.633Z,2.15
2022-10-03T02:03:47.138Z,1.92
2022-10-03T02:06:22.438Z,1.90
2022-10-03T02:09:05.381Z,2.00
2022-10-03T02:11:42.996Z,2.47
2022-10-03T02:14:24.559Z,2.00
2022-10-03T02:17:02.960Z,2.00
2022-10-03T02:19:35.644Z,1.88
2022-10-03T02:22:03.139Z,2.30
2022-10-03T02:24:49.459Z,2.00
2022-10-03T02:27:55.150Z,2.20
2022-10-03T02:30:43.719Z,1.75
2022-10-03T02:33:49.200Z,2.33
2022-10-03T02:36:35.197Z,2.20
2022-10-03T02:39:39.479Z,1.90
2022-10-03T02:42:41.977Z,1.88
2022-10-03T02:45:33.475Z,1.67
2022-10-03T02:48:30.219Z,2.10
2022-10-03T02:51:08.259Z,1.88
2022-10-03T02:54:07.318Z,1.70
2022-10-03T02:57:04.840Z,1.73
2022-10-03T02:59:50.057Z,1.67
2022-10-03T03:02:48.388Z,2.08
2022-10-03T03:05:33.857Z,1.90
2022-10-03T03:08:06.478Z,1.97
2022-10-03T03:11:12.501Z,2.25
2022-10-03T03:14:00.800Z,2.22
2022-10-03T03:16:46.376Z,2.30
2022-10-03T03:19:27.418Z,2.03
2022-10-03T03:22:33.123Z,2.67
2022-10-03T03:25:29.357Z,2.22
2022-10-03T03:28:14.996Z,2.40
2022-10-03T03:31:00.818Z,2.75
2022-10-03T03:33:33.220Z,2.70
2022-10-03T03:36:06.100Z,2.90
2022-10-03T03:38:57.402Z,3.08
2022-10-03T03:42:09.238Z,3.20
2022-10-03T03:44:55.883Z,3.20
2022-10-03T03:47:43.418Z,3.28
2022-10-03T03:50:41.640Z,3.30
2022-10-03T03:53:45.778Z,4.20
2022-10-03T03:56:37.519Z,4.00
2022-10-03T03:59:27.578Z,3.72
2022-10-03T04:02:12.952Z,3.97
2022-10-03T04:04:55.942Z,3.70
2022-10-03T04:07:34.019Z,4.18
2022-10-03T04:10:22.960Z,3.85
2022-10-03T04:12:55.984Z,4.50
2022-10-03T04:16:01.718Z,4.43
2022-10-03T04:19:00.859Z,4.57
2022-10-03T04:21:49.336Z,4.85
2022-10-03T04:24:50.598Z,5.00
2022-10-03T04:27:54.886Z,5.03
2022-10-03T04:30:33.598Z,5.03
2022-10-03T04:33:06.986Z,4.37
2022-10-03T04:35:50.736Z,4.93
2022-10-03T04:38:40.419Z,4.30
2022-10-03T04:41:27.787Z,4.80
2022-10-03T04:44:28.419Z,5.20
2022-10-03T04:46:57.479Z,4.43
2022-10-03T04:49:39.338Z,4.50
2022-10-03T04:52:45.152Z,4.35
2022-10-03T04:55:44.058Z,4.18
2022-10-03T04:58:32.503Z,4.30
2022-10-03T05:01:21.509Z,4.13
2022-10-03T05:03:57.719Z,4.47
2022-10-03T05:06:30.098Z,4.35
2022-10-03T05:09:21.296Z,4.38
2022-10-03T05:12:15.043Z,4.72
2022-10-03T05:15:19.534Z,4.93
2022-10-03T05:18:10.100Z,5.03
2022-10-03T05:20:42.736Z,5.15
2022-10-03T05:23:24.559Z,4.95
2022-10-03T05:26:43.567Z,5.60
2022-10-03T05:29:02.818Z,5.60
2022-10-03T05:32:07.073Z,6.35
2022-10-03T05:34:38.943Z,6.05
2022-10-03T05:37:43.057Z,5.85
2022-10-03T05:40:17.438Z,6.72
2022-10-03T05:42:53.159Z,6.07
2022-10-03T05:45:51.890Z,5.65
2022-10-03T05:48:47.836Z,5.78
2022-10-03T05:51:39.799Z,5.75
2022-10-03T05:54:06.758Z,6.25
2022-10-03T05:56:58.130Z,5.93
2022-10-03T05:59:35.919Z,6.30
2022-10-03T06:02:33.459Z,6.00
2022-10-03T06:05:26.576Z,5.22
2022-10-03T06:08:11.819Z,5.60
2022-10-03T06:10:51.141Z,5.57
2022-10-03T06:13:21.697Z,5.25
2022-10-03T06:16:12.369Z,5.18
2022-10-03T06:18:43.159Z,5.05
2022-10-03T06:21:19.178Z,5.07
2022-10-03T06:24:07.339Z,4.87
2022-10-03T06:26:39.958Z,5.30
2022-10-03T06:29:31.182Z,4.45
2022-10-03T06:32:31.776Z,4.82
2022-10-03T06:35:23.478Z,4.43
2022-10-03T06:38:27.778Z,4.00
2022-10-03T06:41:31.462Z,3.50
2022-10-03T06:44:16.937Z,3.50
2022-10-03T06:47:08.262Z,3.60
2022-10-03T06:50:00.239Z,3.30
2022-10-03T06:52:39.165Z,3.10
2022-10-03T06:55:28.156Z,2.78
2022-10-03T06:58:10.079Z,2.75
2022-10-03T07:01:15.772Z,2.75
2022-10-03T07:04:01.439Z,2.10
2022-10-03T07:06:51.537Z,2.67
2022-10-03T07:09:55.236Z,2.10
2022-10-03T07:12:47.680Z,2.08
2022-10-03T07:15:50.808Z,2.17
2022-10-03T07:18:19.641Z,1.80
2022-10-03T07:21:24.398Z,2.07
2022-10-03T07:24:14.038Z,1.83
2022-10-03T07:27:15.039Z,2.08
2022-10-03T07:29:55.040Z,1.60
2022-10-03T07:32:39.977Z,1.70
2022-10-03T07:35:26.938Z,1.60
2022-10-03T07:38:24.248Z,1.90
2022-10-03T07:41:03.020Z,1.88
2022-10-03T07:43:48.458Z,2.20
2022-10-03T07:46:53.579Z,1.58
2022-10-03T07:49:57.678Z,1.90
2022-10-03T07:52:42.959Z,1.40
2022-10-03T07:55:27.941Z,1.67
2022-10-03T07:58:13.220Z,1.90
2022-10-03T08:00:51.822Z,1.77
2022-10-03T08:03:30.463Z,1.57
2022-10-03T08:06:17.338Z,1.92
2022-10-03T08:09:14.662Z,1.58
2022-10-03T08:11:56.659Z,1.90
2022-10-03T08:14:32.623Z,1.83
2022-10-03T08:17:24.108Z,1.63
2022-10-03T08:20:12.327Z,1.92
2022-10-03T08:23:00.518Z,1.80
2022-10-03T08:26:04.697Z,1.90
2022-10-03T08:29:05.286Z,1.73
2022-10-03T08:31:44.590Z,1.93
2022-10-03T08:34:45.499Z,1.80
2022-10-03T08:37:43.323Z,2.20
2022-10-03T08:40:42.743Z,1.80
2022-10-03T08:43:47.144Z,1.65
2022-10-03T08:46:52.605Z,1.60
2022-10-03T08:49:44.382Z,1.73
2022-10-03T08:52:48.518Z,1.70
2022-10-03T08:55:41.223Z,1.80
2022-10-03T08:58:45.546Z,1.88
2022-10-03T09:01:50.373Z,1.97
2022-10-03T09:04:42.045Z,2.30
2022-10-03T09:07:27.187Z,1.73
2022-10-03T09:10:20.501Z,2.22
2022-10-03T09:12:59.150Z,2.25
2022-10-03T09:15:44.479Z,2.20
2022-10-03T09:18:53.838Z,2.40
2022-10-03T09:21:37.429Z,3.08
2022-10-03T09:24:41.979Z,2.85
2022-10-03T09:27:27.041Z,2.75
2022-10-03T09:30:23.251Z,2.67
2022-10-03T09:33:08.438Z,2.60
2022-10-03T09:36:12.284Z,2.22
2022-10-03T09:39:16.532Z,1.88
2022-10-03T09:42:04.979Z,1.98
2022-10-03T09:45:10.243Z,2.67
2022-10-03T09:48:04.141Z,2.65
2022-10-03T09:50:55.564Z,2.38
2022-10-03T09:53:47.136Z,2.83
2022-10-03T09:56:51.760Z,2.53
2022-10-03T09:59:59.833Z,1.70
2022-10-03T10:03:03.662Z,1.90
2022-10-03T10:05:41.377Z,1.90
2022-10-03T10:08:38.642Z,1.60
2022-10-03T10:11:13.501Z,1.92
2022-10-03T10:14:13.518Z,1.97
2022-10-03T10:16:53.679Z,1.90
2022-10-03T10:19:41.898Z,1.42
2022-10-03T10:22:33.258Z,1.80
2022-10-03T10:25:37.441Z,1.88
2022-10-03T10:28:25.907Z,1.63
2022-10-03T10:31:29.845Z,2.00
2022-10-03T10:34:34.185Z,1.75
2022-10-03T10:37:25.520Z,1.73
2022-10-03T10:40:12.781Z,2.00
2022-10-03T10:43:16.721Z,1.70
2022-10-03T10:46:08.136Z,2.10
2022-10-03T10:49:05.618Z,1.98
2022-10-03T10:51:44.282Z,2.10
2022-10-03T10:54:29.027Z,1.90
2022-10-03T10:56:58.341Z,2.10
2022-10-03T10:59:51.902Z,2.28
2022-10-03T11:03:09.542Z,3.13
2022-10-03T11:06:16.561Z,3.30
2022-10-03T11:09:20.742Z,2.72
2022-10-03T11:11:51.361Z,2.60
2022-10-03T11:14:36.346Z,2.53
2022-10-03T11:17:24.898Z,2.42
2022-10-03T11:20:30.158Z,2.78
2022-10-03T11:23:41.920Z,2.97
2022-10-03T11:26:11.719Z,2.53
2022-10-03T11:28:50.544Z,1.77
2022-10-03T11:31:23.491Z,2.60
2022-10-03T11:34:27.498Z,1.77
2022-10-03T11:37:13.420Z,1.75
2022-10-03T11:39:58.740Z,1.60
2022-10-03T11:42:50.919Z,1.73
2022-10-03T11:45:35.005Z,1.70
2022-10-03T11:48:31.085Z,2.00
2022-10-03T11:51:02.763Z,2.00
2022-10-03T11:54:13.241Z,2.30
2022-10-03T11:56:47.400Z,2.53
2022-10-03T11:59:51.060Z,2.20
2022-10-03T12:02:40.738Z,2.10
2022-10-03T12:05:11.660Z,2.10
2022-10-03T12:08:05.957Z,2.67
2022-10-03T12:10:41.559Z,2.42
2022-10-03T12:13:16.677Z,1.75
2022-10-03T12:15:48.057Z,2.33
2022-10-03T12:18:45.819Z,2.35
2022-10-03T12:21:14.772Z,2.80
2022-10-03T12:24:28.081Z,2.70
2022-10-03T12:27:03.778Z,2.47
2022-10-03T12:29:32.696Z,3.00
2022-10-03T12:32:25.949Z,2.80
2022-10-03T12:35:04.759Z,2.80
2022-10-03T12:37:52.620Z,2.38
2022-10-03T12:40:39.841Z,2.28
2022-10-03T12:43:43.984Z,2.05
2022-10-03T12:46:23.936Z,2.42
2022-10-03T12:49:05.599Z,2.90
2022-10-03T12:51:50.672Z,2.45
2022-10-03T12:54:39.139Z,1.92
2022-10-03T12:57:24.425Z,2.38
2022-10-03T13:00:03.197Z,2.45
2022-10-03T13:02:36.718Z,2.70
2022-10-03T13:05:37.239Z,2.88
2022-10-03T13:08:12.046Z,2.15
2022-10-03T13:10:42.440Z,2.33
2022-10-03T13:13:31.281Z,2.28
2022-10-03T13:16:16.859Z,2.63
2022-10-03T13:19:14.380Z,2.75
2022-10-03T13:22:18.283Z,2.72
2022-10-03T13:24:59.321Z,2.70
2022-10-03T13:27:41.547Z,2.40
2022-10-03T13:30:31.344Z,3.30
2022-10-03T13:33:21.663Z,2.80
2022-10-03T13:36:10.025Z,2.53
2022-10-03T13:38:59.936Z,2.72
2022-10-03T13:41:48.341Z,2.58
2022-10-03T13:44:37.051Z,2.07
2022-10-03T13:47:55.980Z,2.60
2022-10-03T13:50:34.203Z,2.97
2022-10-03T13:53:03.940Z,2.85
2022-10-03T13:55:52.094Z,2.75
2022-10-03T13:58:48.963Z,3.27
2022-10-03T14:01:53.141Z,2.50
2022-10-03T14:04:44.647Z,2.60
2022-10-03T14:07:14.338Z,2.80
2022-10-03T14:09:56.044Z,2.53
2022-10-03T14:12:50.986Z,2.87
2022-10-03T14:15:18.607Z,3.03
2022-10-03T14:17:45.278Z,2.50
2022-10-03T14:20:21.236Z,2.40
2022-10-03T14:22:56.978Z,2.67
2022-10-03T14:25:28.420Z,2.70
2022-10-03T14:28:03.690Z,2.78
2022-10-03T14:30:45.446Z,2.35
2022-10-03T14:33:30.002Z,2.85
2022-10-03T14:36:05.655Z,3.03
2022-10-03T14:39:03.228Z,2.80
2022-10-03T14:41:33.066Z,3.45
2022-10-03T14:44:13.677Z,2.95
2022-10-03T14:47:05.220Z,3.63
2022-10-03T14:49:53.459Z,3.60
2022-10-03T14:52:38.046Z,3.40
2022-10-03T14:55:31.786Z,3.47
2022-10-03T14:58:10.838Z,3.65
2022-10-03T15:00:43.887Z,3.47
2022-10-03T15:03:20.878Z,4.05
2022-10-03T15:05:59.324Z,4.10
2022-10-03T15:08:31.381Z,3.90
2022-10-03T15:10:58.266Z,4.30
2022-10-03T15:13:25.163Z,4.15
2022-10-03T15:15:52.356Z,4.22
2022-10-03T15:18:22.184Z,3.67
2022-10-03T15:20:49.380Z,3.78
2022-10-03T15:23:26.642Z,4.45
2022-10-03T15:25:54.299Z,4.18
2022-10-03T15:28:24.551Z,3.97
2022-10-03T15:30:52.365Z,4.00
2022-10-03T15:33:37.862Z,4.68
2022-10-03T15:36:14.757Z,4.18
2022-10-03T15:38:43.246Z,4.28
2022-10-03T15:41:17.020Z,4.45
2022-10-03T15:43:50.730Z,4.37
2022-10-03T15:46:39.369Z,4.78
2022-10-03T15:49:16.405Z,4.65
2022-10-03T15:51:44.084Z,5.15
2022-10-03T15:54:14.311Z,5.35
2022-10-03T15:56:46.291Z,5.10
2022-10-03T15:59:25.579Z,6.43
2022-10-03T16:01:53.942Z,5.90
2022-10-03T16:04:20.863Z,5.85
2022-10-03T16:07:03.355Z,5.93
2022-10-03T16:09:46.384Z,6.43
2022-10-03T16:12:52.502Z,6.15
2022-10-03T16:15:27.640Z,6.57
2022-10-03T16:18:32.328Z,6.32
2022-10-03T16:21:01.493Z,6.60
2022-10-03T16:23:29.054Z,6.90
2022-10-03T16:25:57.687Z,7.07
2022-10-03T16:28:30.418Z,6.55
2022-10-03T16:30:59.435Z,7.00
2022-10-03T16:33:27.529Z,7.55
2022-10-03T16:35:58.648Z,7.10
2022-10-03T16:38:31.828Z,7.50
2022-10-03T16:41:01.210Z,7.18
2022-10-03T16:43:30.368Z,8.15
2022-10-03T16:45:57.457Z,8.30
2022-10-03T16:48:47.130Z,8.53
2022-10-03T16:51:20.356Z,8.43
2022-10-03T16:53:48.931Z,8.57
2022-10-03T16:56:17.584Z,8.82
2022-10-03T16:58:55.746Z,8.73
2022-10-03T17:01:53.209Z,8.83
2022-10-03T17:04:29.159Z,9.02
2022-10-03T17:06:57.348Z,9.18
2022-10-03T17:09:47.664Z,9.35
2022-10-03T17:12:25.150Z,10.07
2022-10-03T17:14:55.928Z,9.30
2022-10-03T17:17:48.654Z,9.20
2022-10-03T17:20:48.315Z,9.02
2022-10-03T17:23:27.707Z,9.45
2022-10-03T17:26:10.747Z,8.52
2022-10-03T17:28:44.770Z,8.57
2022-10-03T17:31:34.266Z,9.10
2022-10-03T17:34:16.228Z,8.90
2022-10-03T17:37:13.674Z,8.73
2022-10-03T17:40:01.050Z,8.00
2022-10-03T17:42:49.449Z,8.83
2022-10-03T17:45:18.971Z,9.05
2022-10-03T17:47:46.628Z,8.65
2022-10-03T17:50:17.613Z,8.23
2022-10-03T17:52:46.088Z,8.30
2022-10-03T17:55:19.050Z,8.87
2022-10-03T17:57:54.110Z,8.90
2022-10-03T18:00:27.171Z,7.85
2022-10-03T18:03:01.584Z,8.40
2022-10-03T18:05:31.286Z,7.65
2022-10-03T18:08:19.188Z,7.63
2022-10-03T18:10:50.589Z,7.25
2022-10-03T18:13:22.071Z,7.50
2022-10-03T18:16:07.881Z,7.35
2022-10-03T18:19:10.587Z,7.50
2022-10-03T18:21:40.763Z,7.63
2022-10-03T18:24:38.499Z,8.25
2022-10-03T18:27:27.129Z,7.43
2022-10-03T18:30:10.607Z,7.47
2022-10-03T18:32:38.551Z,7.82
2022-10-03T18:35:19.316Z,7.50
2022-10-03T18:37:46.123Z,7.28
2022-10-03T18:40:20.890Z,7.13
2022-10-03T18:42:50.403Z,7.07
2022-10-03T18:45:43.940Z,6.68
2022-10-03T18:48:31.412Z,6.60
2022-10-03T18:51:16.139Z,6.30
2022-10-03T18:53:48.495Z,6.00
2022-10-03T18:56:26.106Z,6.22
2022-10-03T18:59:14.268Z,5.85
2022-10-03T19:01:54.595Z,5.33
2022-10-03T19:04:36.775Z,5.88
2022-10-03T19:07:11.295Z,5.00
2022-10-03T19:10:14.507Z,6.03
2022-10-03T19:12:47.447Z,5.32
2022-10-03T19:15:43.932Z,5.53
2022-10-03T19:18:23.136Z,5.28
2022-10-03T19:20:51.719Z,5.63
2022-10-03T19:23:39.189Z,5.88
2022-10-03T19:26:10.827Z,5.43
2022-10-03T19:28:48.192Z,6.17
2022-10-03T19:31:19.809Z,6.35
2022-10-03T19:33:51.928Z,6.28
2022-10-03T19:36:23.148Z,6.13
2022-10-03T19:38:50.288Z,5.90
2022-10-03T19:41:31.192Z,6.10
2022-10-03T19:44:03.053Z,5.63
2022-10-03T19:46:29.835Z,6.10
2022-10-03T19:49:22.526Z,6.40
2022-10-03T19:51:49.422Z,5.80
2022-10-03T19:54:31.614Z,5.73
2022-10-03T19:56:58.569Z,5.82
2022-10-03T19:59:45.133Z,5.65
2022-10-03T20:02:12.172Z,5.68
2022-10-03T20:04:38.972Z,5.85
2022-10-03T20:07:11.629Z,5.03
2022-10-03T20:09:38.471Z,5.50
2022-10-03T20:12:09.490Z,5.28
2022-10-03T20:14:41.652Z,4.63
2022-10-03T20:17:19.748Z,5.50
2022-10-03T20:19:56.984Z,4.80
2022-10-03T20:22:35.072Z,5.43
2022-10-03T20:25:02.113Z,5.00
2022-10-03T20:27:36.627Z,4.88
2022-10-03T20:30:40.632Z,4.80
2022-10-03T20:33:08.397Z,4.67
2022-10-03T20:35:58.309Z,4.53
2022-10-03T20:38:31.107Z,4.60
2022-10-03T20:41:01.257Z,4.70
2022-10-03T20:43:53.568Z,4.43
2022-10-03T20:46:43.649Z,4.30
2022-10-03T20:49:26.112Z,4.43
2022-10-03T20:51:52.889Z,4.53
2022-10-03T20:54:21.388Z,4.53
2022-10-03T20:56:52.801Z,4.40
2022-10-03T20:59:21.176Z,4.23
2022-10-03T21:01:48.067Z,3.95
2022-10-03T21:04:24.328Z,4.22
2022-10-03T21:07:28.628Z,3.97
2022-10-03T21:10:00.668Z,4.20
2022-10-03T21:12:31.995Z,3.90
2022-10-03T21:15:03.548Z,3.67
2022-10-03T21:17:30.408Z,3.67
2022-10-03T21:20:06.127Z,3.65
2022-10-03T21:22:32.951Z,3.70
2022-10-03T21:25:02.019Z,3.37
2022-10-03T21:27:28.872Z,3.90
2022-10-03T21:29:58.766Z,3.70
2022-10-03T21:32:44.274Z,3.58
2022-10-03T21:35:32.107Z,3.97
2022-10-03T21:38:36.154Z,3.20
2022-10-03T21:41:26.208Z,3.50
2022-10-03T21:44:01.050Z,3.85
2022-10-03T21:46:45.208Z,3.63
2022-10-03T21:49:33.309Z,3.50
2022-10-03T21:52:06.027Z,3.47
2022-10-03T21:55:04.906Z,3.95
2022-10-03T21:57:41.146Z,4.05
2022-10-03T22:00:29.550Z,3.97
2022-10-03T22:03:14.727Z,3.85
2022-10-03T22:05:41.507Z,3.57
2022-10-03T22:08:14.308Z,3.65
2022-10-03T22:10:41.208Z,3.40
2022-10-03T22:13:09.170Z,3.53
2022-10-03T22:15:54.527Z,3.83
2022-10-03T22:18:21.415Z,4.07
2022-10-03T22:20:54.918Z,4.32
2022-10-03T22:23:32.989Z,4.93
2022-10-03T22:26:03.892Z,4.57
2022-10-03T22:28:53.529Z,4.75
2022-10-03T22:31:26.237Z,4.40
2022-10-03T22:34:22.828Z,4.35
2022-10-03T22:36:49.629Z,4.13
2022-10-03T22:39:17.588Z,4.35
2022-10-03T22:41:50.690Z,4.18
2022-10-03T22:44:18.395Z,3.70
2022-10-03T22:46:47.815Z,3.70
2022-10-03T22:49:21.229Z,3.40
2022-10-03T22:51:48.933Z,3.97
2022-10-03T22:54:17.170Z,3.75
2022-10-03T22:56:46.628Z,3.80
2022-10-03T22:59:34.768Z,3.40
2022-10-03T23:02:05.555Z,3.47
2022-10-03T23:04:33.350Z,3.40
2022-10-03T23:07:18.652Z,3.60
2022-10-03T23:10:10.452Z,3.63
2022-10-03T23:12:44.948Z,3.50
2022-10-03T23:15:15.029Z,3.08
2022-10-03T23:18:03.589Z,3.20
2022-10-03T23:21:02.248Z,3.13
2022-10-03T23:23:42.469Z,3.23
2022-10-03T23:26:46.728Z,3.00
2022-10-03T23:29:14.927Z,3.00
2022-10-03T23:32:07.029Z,2.90
2022-10-03T23:34:36.656Z,2.95
2022-10-03T23:37:15.877Z,2.77
2022-10-03T23:39:44.115Z,2.65
2022-10-03T23:42:20.090Z,2.75
2022-10-03T23:44:50.747Z,2.70
2022-10-03T23:47:19.730Z,2.42
2022-10-03T23:49:47.790Z,2.77
2022-10-03T23:52:30.912Z,2.92
2022-10-03T23:55:00.187Z,2.55
2022-10-03T23:57:38.709Z,2.95
